Watrous, Pennsylvania
Current Conditions -  °F | °C
As of 7:15 AM on Sunday 25 Jan 2015 (Local Time) from KN38 Reporting Station
Light Rain Light Rain  
Wind Chill: 20°   Ceiling: 2900
Heat Index: 28°   Visibility: 10mi
Dew Point: 19°   Wind: 9mph
Humidity: 69%   Direction: 310°NW
Pressure: 29.67"   Gusts: 18mph
Location:  41.6649°N, 77.5403°W
Report Text: KN38 251215Z AUTO 31008G16KT 10SM -RA OVC029 M02/M07 A2967 RMK AO2
Loading
Personal Weather Stations






























Interactive Weather Map New forecast layout! Learn more

10-Day Weather Forecast

Advertisements
Track Severe Weather on mobile